createdAt,value
2022-12-31T00:02:04.900Z,5.50
2022-12-31T00:08:07.013Z,5.50
2022-12-31T00:14:09.095Z,5.50
2022-12-31T00:20:11.732Z,5.50
2022-12-31T00:26:15.065Z,5.40
2022-12-31T00:32:17.301Z,5.50
2022-12-31T00:38:19.353Z,5.60
2022-12-31T00:44:21.520Z,5.80
2022-12-31T00:50:23.773Z,5.80
2022-12-31T00:56:28.515Z,5.90
2022-12-31T01:02:31.042Z,5.90
2022-12-31T01:08:33.551Z,5.90
2022-12-31T01:14:35.722Z,6.20
2022-12-31T01:20:40.240Z,6.40
2022-12-31T01:26:42.707Z,6.40
2022-12-31T01:32:44.992Z,6.40
2022-12-31T01:38:47.303Z,6.20
2022-12-31T01:44:55.492Z,6.10
2022-12-31T01:50:57.730Z,6.10
2022-12-31T01:56:59.857Z,6.00
2022-12-31T02:03:03.523Z,6.10
2022-12-31T02:09:05.819Z,6.00
2022-12-31T02:15:08.538Z,6.10
2022-12-31T02:21:22.743Z,6.10
2022-12-31T02:28:00.728Z,6.00
2022-12-31T02:34:20.087Z,5.90
2022-12-31T02:40:23.605Z,5.90
2022-12-31T02:46:42.434Z,5.90
2022-12-31T02:52:56.445Z,5.90
2022-12-31T02:59:21.693Z,5.90
2022-12-31T03:05:28.519Z,5.90
2022-12-31T03:11:59.777Z,5.90
2022-12-31T03:18:19.233Z,5.80
2022-12-31T03:24:42.040Z,5.60
2022-12-31T03:30:47.246Z,5.40
2022-12-31T03:36:49.280Z,5.30
2022-12-31T03:42:51.366Z,5.30
2022-12-31T03:48:53.534Z,5.20
2022-12-31T03:54:55.836Z,5.20
2022-12-31T04:00:58.230Z,5.00
2022-12-31T04:07:00.520Z,4.90
2022-12-31T04:13:04.942Z,4.90
2022-12-31T04:19:08.061Z,4.80
2022-12-31T04:25:11.731Z,4.70
2022-12-31T04:31:13.800Z,4.70
2022-12-31T04:37:15.982Z,4.50
2022-12-31T04:43:18.051Z,4.40
2022-12-31T04:49:20.558Z,4.40
2022-12-31T04:55:23.028Z,4.40
2022-12-31T05:01:25.698Z,4.40
2022-12-31T05:07:28.090Z,4.40
2022-12-31T05:13:33.299Z,4.30
2022-12-31T05:19:35.947Z,4.30
2022-12-31T05:25:38.212Z,4.30
2022-12-31T05:31:40.258Z,4.20
2022-12-31T05:37:42.292Z,4.10
2022-12-31T05:43:44.491Z,4.00
2022-12-31T05:49:46.528Z,3.90
2022-12-31T05:55:49.092Z,3.90
2022-12-31T06:01:51.217Z,3.80
2022-12-31T06:07:54.598Z,3.80
2022-12-31T06:13:56.678Z,4.00
2022-12-31T06:19:59.995Z,4.10
2022-12-31T06:26:03.963Z,4.20
2022-12-31T06:32:06.505Z,4.30
2022-12-31T06:38:11.616Z,4.50
2022-12-31T06:44:15.080Z,4.70
2022-12-31T06:50:17.286Z,4.80
2022-12-31T06:56:33.183Z,5.00
2022-12-31T07:03:09.828Z,5.10
2022-12-31T07:09:24.557Z,5.30
2022-12-31T07:15:42.196Z,5.50
2022-12-31T07:21:45.098Z,6.30
2022-12-31T07:28:11.331Z,10.00
2022-12-31T07:34:51.593Z,13.20
2022-12-31T07:41:12.015Z,13.20
2022-12-31T07:47:25.630Z,13.00
2022-12-31T07:53:28.016Z,12.90
2022-12-31T07:59:53.337Z,14.70
2022-12-31T08:06:13.156Z,15.90
2022-12-31T08:12:16.174Z,16.90
2022-12-31T08:18:18.643Z,16.10
2022-12-31T08:24:30.785Z,15.20
2022-12-31T08:30:56.417Z,15.60
2022-12-31T08:37:13.808Z,19.90
2022-12-31T08:43:31.519Z,19.40
2022-12-31T08:49:35.551Z,18.30
2022-12-31T08:55:38.059Z,16.90
2022-12-31T09:02:03.172Z,14.30
2022-12-31T09:08:39.069Z,13.50
2022-12-31T09:15:19.312Z,12.90
2022-12-31T09:21:21.615Z,12.90
2022-12-31T09:27:40.921Z,12.60
2022-12-31T09:34:28.842Z,12.60
2022-12-31T09:41:01.750Z,12.40
2022-12-31T09:47:49.245Z,12.50
2022-12-31T09:54:20.399Z,12.90
2022-12-31T10:00:43.444Z,12.70
2022-12-31T10:07:02.644Z,12.80
2022-12-31T10:13:33.296Z,12.70
2022-12-31T10:19:41.615Z,12.70
2022-12-31T10:25:59.114Z,12.80
2022-12-31T10:32:18.699Z,12.90
2022-12-31T10:38:29.568Z,13.10
2022-12-31T10:44:37.967Z,13.20
2022-12-31T10:50:45.642Z,13.40
2022-12-31T10:57:11.869Z,13.70
2022-12-31T11:03:25.195Z,14.00
2022-12-31T11:09:49.019Z,14.30
2022-12-31T11:16:10.446Z,14.70
2022-12-31T11:22:40.796Z,15.00
2022-12-31T11:29:01.709Z,14.90
2022-12-31T11:35:27.014Z,15.20
2022-12-31T11:41:49.041Z,15.50
2022-12-31T11:48:32.675Z,15.80
2022-12-31T11:54:51.880Z,16.70
2022-12-31T12:01:20.138Z,16.70
2022-12-31T12:07:24.308Z,16.00
2022-12-31T12:13:28.088Z,15.10
2022-12-31T12:19:33.272Z,14.40
2022-12-31T12:25:44.131Z,14.10
2022-12-31T12:32:15.909Z,14.30
2022-12-31T12:38:23.373Z,14.10
2022-12-31T12:44:25.597Z,13.80
2022-12-31T12:50:38.668Z,13.80
2022-12-31T12:56:52.302Z,13.70
2022-12-31T13:03:16.398Z,13.60
2022-12-31T13:09:29.950Z,13.40
2022-12-31T13:15:39.917Z,13.20
2022-12-31T13:21:42.848Z,13.30
2022-12-31T13:27:48.469Z,13.10
2022-12-31T13:33:59.626Z,13.00
2022-12-31T13:40:21.334Z,12.70
2022-12-31T13:46:46.504Z,12.60
2022-12-31T13:53:12.886Z,12.50
2022-12-31T13:59:22.629Z,12.30
2022-12-31T14:05:40.680Z,12.20
2022-12-31T14:12:23.447Z,12.10
2022-12-31T14:18:55.390Z,11.90
2022-12-31T14:24:59.715Z,11.90
2022-12-31T14:31:45.254Z,11.70
2022-12-31T14:37:57.218Z,11.50
2022-12-31T14:44:27.262Z,11.20
2022-12-31T14:50:31.423Z,11.00
2022-12-31T14:56:45.877Z,10.80
2022-12-31T15:02:53.629Z,10.60
2022-12-31T15:09:08.582Z,10.50
2022-12-31T15:15:38.521Z,10.40
2022-12-31T15:21:52.798Z,10.30
2022-12-31T15:27:57.164Z,10.20
2022-12-31T15:34:07.395Z,10.00
2022-12-31T15:40:15.772Z,10.00
2022-12-31T15:46:22.700Z,9.90
2022-12-31T15:53:07.929Z,9.70
2022-12-31T15:59:14.237Z,9.70
2022-12-31T16:05:27.483Z,9.60
2022-12-31T16:11:30.747Z,9.60
2022-12-31T16:17:38.825Z,9.50
2022-12-31T16:23:50.129Z,9.50
2022-12-31T16:30:02.190Z,9.60
2022-12-31T16:36:05.571Z,9.60
2022-12-31T16:42:14.501Z,9.60
2022-12-31T16:48:19.318Z,9.50
2022-12-31T16:54:29.273Z,9.30
2022-12-31T17:00:32.647Z,9.30
2022-12-31T17:06:34.727Z,9.20
2022-12-31T17:13:17.451Z,9.10
2022-12-31T17:19:05.651Z,9.00
2022-12-31T17:25:27.311Z,8.90
2022-12-31T17:31:34.151Z,8.80
2022-12-31T17:37:36.602Z,8.90
2022-12-31T17:43:40.039Z,8.90
2022-12-31T17:49:45.940Z,9.00
2022-12-31T17:55:51.292Z,9.00
2022-12-31T18:01:53.518Z,9.00
2022-12-31T18:07:56.063Z,9.00
2022-12-31T18:13:58.357Z,8.90
2022-12-31T18:20:05.209Z,9.00
2022-12-31T18:26:13.092Z,8.90
2022-12-31T18:32:30.026Z,8.70
2022-12-31T18:38:32.407Z,8.70
2022-12-31T18:44:34.351Z,8.50
2022-12-31T18:50:36.832Z,8.30
2022-12-31T18:56:44.803Z,8.10
2022-12-31T19:02:49.269Z,8.00
2022-12-31T19:08:51.877Z,7.90
2022-12-31T19:14:54.048Z,7.80
2022-12-31T19:20:56.242Z,7.80
2022-12-31T19:26:58.418Z,7.90
2022-12-31T19:33:01.073Z,7.90
2022-12-31T19:39:04.599Z,7.90
2022-12-31T19:45:07.668Z,7.90
2022-12-31T19:51:17.872Z,7.90
2022-12-31T19:57:19.863Z,7.80
2022-12-31T20:03:22.040Z,7.80
2022-12-31T20:09:24.251Z,7.60
2022-12-31T20:15:26.451Z,7.50
2022-12-31T20:21:29.169Z,7.40
2022-12-31T20:27:31.216Z,7.40
2022-12-31T20:33:33.994Z,7.40
2022-12-31T20:39:36.041Z,7.50
2022-12-31T20:45:41.184Z,7.70
2022-12-31T20:51:48.793Z,7.70
2022-12-31T20:57:53.933Z,7.60
2022-12-31T21:04:05.442Z,7.60
2022-12-31T21:10:11.760Z,7.60
2022-12-31T21:16:13.916Z,7.50
2022-12-31T21:22:16.081Z,7.60
2022-12-31T21:28:18.269Z,7.60
2022-12-31T21:34:20.289Z,7.60
2022-12-31T21:40:22.402Z,7.50
2022-12-31T21:46:25.991Z,7.50
2022-12-31T21:52:28.667Z,7.50
2022-12-31T21:58:30.928Z,7.40
2022-12-31T22:05:01.552Z,7.50
2022-12-31T22:10:55.358Z,7.50
2022-12-31T22:16:57.355Z,7.50
2022-12-31T22:22:59.444Z,7.40
2022-12-31T22:29:01.556Z,7.40
2022-12-31T22:35:03.778Z,7.30
2022-12-31T22:41:17.819Z,7.30
2022-12-31T22:47:19.931Z,7.20
2022-12-31T22:53:21.997Z,7.20
2022-12-31T22:59:24.728Z,7.20
2022-12-31T23:05:26.802Z,7.30
2022-12-31T23:11:29.488Z,7.30
2022-12-31T23:17:50.291Z,7.20
2022-12-31T23:23:53.925Z,7.20
2022-12-31T23:29:56.025Z,7.10
2022-12-31T23:36:05.672Z,7.10
2022-12-31T23:42:08.175Z,6.80
2022-12-31T23:48:10.301Z,6.70
2022-12-31T23:54:13.123Z,6.60
